Time;durP1;ratioP1;P1;durP2;ratioP2;P2;SDS_P1;SDS_P2;PMS_P1;PMS_P2;Temp;Humidity;BMP_temperature;BMP_pressure;BME280_temperature;BME280_humidity;BME280_pressure;Samples;Min_cycle;Max_cycle;Signal;HPM_P1;HPM_P2
2022/05/08 00:01:35;;;;;;;;;;;;;;;16.06;54.27;102099.47;5024529;28;19913;-46
2022/05/08 00:04:01;;;;;;;;;;;;;;;16.11;54.21;102108.00;5020885;28;20377;-48
2022/05/08 00:06:26;;;;;;;;;;;;;;;16.11;53.99;102108.00;5019794;28;19951;-51
2022/05/08 00:08:52;;;;;;;;;;;;;;;16.06;54.11;102104.78;5017251;28;19921;-45
2022/05/08 00:11:17;;;;;;;;;;;;;;;16.00;54.01;102098.06;5025545;28;19917;-46
2022/05/08 00:13:42;;;;;;;;;;;;;;;15.99;54.23;102103.44;5026253;28;19925;-46
2022/05/08 00:16:09;;;;;;;;;;;;;;;15.97;53.99;102103.53;5026397;28;20018;-45
2022/05/08 00:18:34;;;;;;;;;;;;;;;15.96;54.15;102103.59;5022086;28;19924;-49
2022/05/08 00:21:00;;;;;;;;;;;;;;;15.90;54.14;102098.69;5021880;28;19917;-47
2022/05/08 00:23:25;;;;;;;;;;;;;;;15.86;54.23;102103.31;5021961;28;20036;-50
2022/05/08 00:25:50;;;;;;;;;;;;;;;15.80;54.15;102103.63;5018892;28;20308;-47
2022/05/08 00:28:16;;;;;;;;;;;;;;;15.72;54.25;102101.44;5020299;28;20409;-49
2022/05/08 00:30:41;;;;;;;;;;;;;;;15.71;54.22;102105.03;5019358;28;20361;-46
2022/05/08 00:33:07;;;;;;;;;;;;;;;15.74;54.01;102106.63;5026122;28;19917;-46
2022/05/08 00:35:32;;;;;;;;;;;;;;;15.74;54.00;102104.84;5021437;28;20026;-46
2022/05/08 00:37:57;;;;;;;;;;;;;;;15.76;53.81;102102.09;5019552;28;19921;-45
2022/05/08 00:40:23;;;;;;;;;;;;;;;15.77;53.85;102104.69;5023842;28;19924;-47
2022/05/08 00:42:48;;;;;;;;;;;;;;;15.74;53.63;102102.19;5025251;28;20033;-48
2022/05/08 00:45:14;;;;;;;;;;;;;;;15.73;53.58;102104.97;5029302;28;19917;-45
2022/05/08 00:47:40;;;;;;;;;;;;;;;15.72;53.63;102100.59;5023582;28;19921;-46
2022/05/08 00:50:06;;;;;;;;;;;;;;;15.73;53.51;102108.44;5030214;28;19920;-48
2022/05/08 00:52:31;;;;;;;;;;;;;;;15.72;53.49;102104.09;5028913;28;20478;-45
2022/05/08 00:54:57;;;;;;;;;;;;;;;15.68;53.48;102102.53;5025625;28;19916;-47
2022/05/08 00:57:24;;;;;;;;;;;;;;;15.58;53.67;102104.03;5023151;28;19924;-45
2022/05/08 00:59:49;;;;;;;;;;;;;;;15.47;53.82;102102.84;5024340;28;19920;-47
2022/05/08 01:02:14;;;;;;;;;;;;;;;15.32;54.17;102112.50;5028376;28;19929;-49
2022/05/08 01:04:39;;;;;;;;;;;;;;;15.20;54.34;102111.41;5027184;28;19924;-45
2022/05/08 01:07:05;;;;;;;;;;;;;;;15.19;54.51;102114.16;5026320;28;19921;-48
2022/05/08 01:09:30;;;;;;;;;;;;;;;15.20;54.65;102118.50;5027179;28;19917;-50
2022/05/08 01:11:55;;;;;;;;;;;;;;;15.26;54.46;102117.31;5027219;28;19928;-46
2022/05/08 01:14:22;;;;;;;;;;;;;;;15.33;54.48;102114.22;5020242;28;19925;-46
2022/05/08 01:16:47;;;;;;;;;;;;;;;15.42;53.98;102112.84;5024427;28;19978;-49
2022/05/08 01:19:13;;;;;;;;;;;;;;;15.49;53.96;102111.59;5025310;28;20357;-46
2022/05/08 01:21:42;;;;;;;;;;;;;;;15.57;53.82;102113.78;5025473;28;19917;-47
2022/05/08 01:24:10;;;;;;;;;;;;;;;15.51;53.48;102104.38;5022100;28;19913;-49
2022/05/08 01:26:35;;;;;;;;;;;;;;;15.45;53.69;102115.34;5026893;28;19924;-47
2022/05/08 01:29:01;;;;;;;;;;;;;;;15.42;53.77;102115.50;5023588;28;19917;-46
2022/05/08 01:31:27;;;;;;;;;;;;;;;15.35;53.80;102115.00;5024523;28;19913;-46
2022/05/08 01:33:52;;;;;;;;;;;;;;;15.33;53.66;102126.66;5029371;28;20008;-48
2022/05/08 01:36:17;;;;;;;;;;;;;;;15.30;54.04;102122.34;5023475;28;19924;-45
2022/05/08 01:38:43;;;;;;;;;;;;;;;15.33;54.05;102116.88;5026926;28;19952;-48
2022/05/08 01:41:08;;;;;;;;;;;;;;;15.36;54.13;102122.03;5023476;28;19917;-46
2022/05/08 01:43:37;;;;;;;;;;;;;;;15.38;53.75;102125.44;5024968;28;19917;-49
2022/05/08 01:46:05;;;;;;;;;;;;;;;15.39;53.72;102121.84;5021619;28;19928;-49
2022/05/08 01:48:31;;;;;;;;;;;;;;;15.44;53.85;102123.38;5025060;28;19932;-46
2022/05/08 01:50:58;;;;;;;;;;;;;;;15.45;53.69;102125.94;5023316;28;19917;-46
2022/05/08 01:53:28;;;;;;;;;;;;;;;15.48;53.55;102120.47;5022372;28;19983;-48
2022/05/08 01:55:54;;;;;;;;;;;;;;;15.50;53.48;102121.22;5022752;28;22181;-55
2022/05/08 01:58:20;;;;;;;;;;;;;;;15.52;53.41;102118.50;5006055;28;21654;-47
2022/05/08 02:00:46;;;;;;;;;;;;;;;15.53;53.38;102117.56;5019445;28;20004;-45
2022/05/08 02:03:12;;;;;;;;;;;;;;;15.52;53.41;102122.00;5021812;28;20024;-49
2022/05/08 02:05:39;;;;;;;;;;;;;;;15.55;53.38;102119.16;5025058;28;19925;-46
2022/05/08 02:08:04;;;;;;;;;;;;;;;15.58;53.34;102125.25;5024536;28;19947;-51
2022/05/08 02:10:30;;;;;;;;;;;;;;;15.58;53.25;102126.09;5021608;28;20261;-46
2022/05/08 02:12:55;;;;;;;;;;;;;;;15.58;53.34;102120.78;5025554;28;20336;-52
2022/05/08 02:15:20;;;;;;;;;;;;;;;15.61;53.23;102122.44;5027217;28;20419;-46
2022/05/08 02:17:46;;;;;;;;;;;;;;;15.61;53.03;102125.09;5022667;28;19928;-51
2022/05/08 02:20:11;;;;;;;;;;;;;;;15.60;52.96;102124.22;5024619;28;19927;-46
2022/05/08 02:22:37;;;;;;;;;;;;;;;15.59;52.95;102125.16;5022732;28;19916;-45
2022/05/08 02:25:03;;;;;;;;;;;;;;;15.57;53.08;102128.84;5025383;28;19921;-45
2022/05/08 02:27:35;;;;;;;;;;;;;;;15.55;53.14;102118.31;5023708;28;19917;-51
2022/05/08 02:30:00;;;;;;;;;;;;;;;15.54;52.86;102125.41;5025365;28;19913;-47
2022/05/08 02:32:26;;;;;;;;;;;;;;;15.55;53.00;102126.28;5025233;28;19924;-50
2022/05/08 02:34:51;;;;;;;;;;;;;;;15.54;52.85;102130.72;5022716;28;20262;-46
2022/05/08 02:37:16;;;;;;;;;;;;;;;15.55;52.87;102120.97;5025519;28;19945;-48
2022/05/08 02:39:43;;;;;;;;;;;;;;;15.55;52.86;102132.44;5022117;28;19924;-46
2022/05/08 02:42:08;;;;;;;;;;;;;;;15.47;52.90;102137.34;5025276;28;19920;-48
2022/05/08 02:44:33;;;;;;;;;;;;;;;15.37;53.25;102144.06;5022395;28;19986;-45
2022/05/08 02:46:59;;;;;;;;;;;;;;;15.24;53.41;102146.56;5025253;28;20020;-52
2022/05/08 02:49:24;;;;;;;;;;;;;;;15.17;53.54;102143.41;5026299;28;20376;-48
2022/05/08 02:51:50;;;;;;;;;;;;;;;15.10;53.62;102136.72;5024799;28;19944;-46
2022/05/08 02:54:15;;;;;;;;;;;;;;;15.00;53.75;102139.00;5025266;28;19963;-47
2022/05/08 02:59:24;;;;;;;;;;;;;;;14.93;53.72;102138.47;5027884;28;19932;-52
2022/05/08 03:01:50;;;;;;;;;;;;;;;14.90;53.81;102138.63;5025004;28;19920;-46
2022/05/08 03:04:15;;;;;;;;;;;;;;;14.91;53.98;102129.75;5025024;28;20324;-50
2022/05/08 03:06:40;;;;;;;;;;;;;;;14.92;53.75;102138.56;5029204;28;20384;-47
2022/05/08 03:09:06;;;;;;;;;;;;;;;14.90;53.97;102135.16;5025603;28;19939;-47
2022/05/08 03:11:32;;;;;;;;;;;;;;;14.89;53.91;102128.13;5022038;28;20014;-45
2022/05/08 03:13:58;;;;;;;;;;;;;;;14.92;54.01;102141.22;5026183;28;19917;-49
2022/05/08 03:16:25;;;;;;;;;;;;;;;14.97;53.84;102143.63;5027629;28;19935;-48
2022/05/08 03:18:51;;;;;;;;;;;;;;;15.02;53.88;102144.25;5026828;28;19919;-52
2022/05/08 03:21:16;;;;;;;;;;;;;;;15.05;53.71;102144.09;5024556;28;19918;-46
2022/05/08 03:23:42;;;;;;;;;;;;;;;15.06;53.78;102151.06;5028289;28;20023;-45
2022/05/08 03:26:07;;;;;;;;;;;;;;;15.04;53.68;102152.97;5023429;28;19975;-48
2022/05/08 03:28:34;;;;;;;;;;;;;;;15.02;53.83;102152.19;5026897;28;20016;-45
2022/05/08 03:30:59;;;;;;;;;;;;;;;15.02;53.64;102163.63;5025806;28;19924;-46
2022/05/08 03:33:25;;;;;;;;;;;;;;;15.00;53.68;102162.03;5022987;28;19912;-46
2022/05/08 03:35:50;;;;;;;;;;;;;;;14.98;53.93;102159.44;5025931;28;19916;-47
2022/05/08 03:38:18;;;;;;;;;;;;;;;15.00;53.84;102173.47;5024370;28;20009;-47
2022/05/08 03:40:43;;;;;;;;;;;;;;;14.94;53.97;102169.34;5026060;28;20016;-49
2022/05/08 03:43:09;;;;;;;;;;;;;;;14.88;54.08;102169.69;5022231;28;20039;-49
2022/05/08 03:45:34;;;;;;;;;;;;;;;14.82;54.27;102164.72;5030142;28;19921;-49
2022/05/08 03:48:00;;;;;;;;;;;;;;;14.80;54.29;102174.53;5028709;28;20355;-46
2022/05/08 03:50:25;;;;;;;;;;;;;;;14.73;54.33;102166.06;5022626;28;19972;-47
2022/05/08 03:52:50;;;;;;;;;;;;;;;14.74;54.43;102166.94;5026151;28;19917;-49
2022/05/08 03:55:16;;;;;;;;;;;;;;;14.77;54.36;102169.38;5027285;28;19917;-47
2022/05/08 03:57:42;;;;;;;;;;;;;;;14.73;54.35;102178.47;5024864;28;19917;-47
2022/05/08 04:00:07;;;;;;;;;;;;;;;14.70;54.38;102166.22;5016964;28;19932;-51
2022/05/08 04:02:33;;;;;;;;;;;;;;;14.66;54.56;102175.25;5020789;28;20293;-49
2022/05/08 04:05:00;;;;;;;;;;;;;;;14.61;54.58;102170.16;5020323;28;19964;-46
2022/05/08 04:07:25;;;;;;;;;;;;;;;14.56;54.88;102169.56;5018085;28;19975;-53
2022/05/08 04:09:50;;;;;;;;;;;;;;;14.50;54.63;102175.16;5025971;28;19964;-48
2022/05/08 04:12:16;;;;;;;;;;;;;;;14.52;54.81;102170.66;5020701;28;20016;-45
2022/05/08 04:14:42;;;;;;;;;;;;;;;14.57;54.67;102176.56;5021805;28;20354;-48
2022/05/08 04:17:07;;;;;;;;;;;;;;;14.61;54.61;102175.47;5019455;28;19921;-49
2022/05/08 04:19:33;;;;;;;;;;;;;;;14.70;54.55;102183.91;5028337;28;19917;-46
2022/05/08 04:24:42;;;;;;;;;;;;;;;14.73;54.08;102178.47;5027175;28;20418;-46
2022/05/08 04:27:08;;;;;;;;;;;;;;;14.72;54.11;102182.03;5024332;28;20004;-50
2022/05/08 04:29:33;;;;;;;;;;;;;;;14.73;54.10;102175.81;5024063;28;19917;-47
2022/05/08 04:31:58;;;;;;;;;;;;;;;14.67;54.14;102178.72;5022579;28;19928;-48
2022/05/08 04:34:24;;;;;;;;;;;;;;;14.49;54.23;102173.44;5026108;28;19913;-47
2022/05/08 04:36:49;;;;;;;;;;;;;;;14.31;54.55;102180.56;5008495;28;20388;-47
2022/05/08 04:39:14;;;;;;;;;;;;;;;14.20;54.74;102181.09;5026465;28;19932;-47
2022/05/08 04:41:40;;;;;;;;;;;;;;;14.14;54.90;102182.25;5026497;28;19983;-46
2022/05/08 04:44:05;;;;;;;;;;;;;;;14.03;55.12;102177.50;5021384;28;20391;-49
2022/05/08 04:46:31;;;;;;;;;;;;;;;13.94;55.18;102177.06;5023879;28;19932;-48
2022/05/08 04:48:56;;;;;;;;;;;;;;;13.84;55.26;102179.34;5028604;28;19917;-45
2022/05/08 04:51:22;;;;;;;;;;;;;;;13.79;55.34;102189.28;5029995;28;19974;-48
2022/05/08 04:53:47;;;;;;;;;;;;;;;13.76;55.29;102185.00;5025759;28;20168;-47
2022/05/08 04:56:12;;;;;;;;;;;;;;;13.78;55.23;102184.91;5028987;28;20052;-48
2022/05/08 04:58:38;;;;;;;;;;;;;;;13.88;55.23;102186.19;5028291;28;20296;-46
2022/05/08 05:01:04;;;;;;;;;;;;;;;14.00;54.68;102185.56;5023391;28;19921;-48
2022/05/08 05:03:29;;;;;;;;;;;;;;;14.06;54.59;102186.22;5028936;28;19917;-48
2022/05/08 05:05:54;;;;;;;;;;;;;;;14.04;54.24;102194.25;5027629;28;19935;-48
2022/05/08 05:08:20;;;;;;;;;;;;;;;13.95;54.53;102192.91;5024966;28;19917;-46
2022/05/08 05:10:46;;;;;;;;;;;;;;;13.90;54.68;102200.19;5021931;28;19923;-51
2022/05/08 05:13:12;;;;;;;;;;;;;;;13.89;54.60;102195.00;5025242;28;19996;-48
2022/05/08 05:15:37;;;;;;;;;;;;;;;13.91;54.05;102198.41;5021622;28;19921;-47
2022/05/08 05:18:03;;;;;;;;;;;;;;;13.87;54.34;102203.84;5026743;28;19921;-46
2022/05/08 05:20:29;;;;;;;;;;;;;;;13.87;54.29;102211.78;5025075;28;19917;-47
2022/05/08 05:22:55;;;;;;;;;;;;;;;13.86;53.97;102212.72;5027509;28;19916;-49
2022/05/08 05:25:20;;;;;;;;;;;;;;;13.83;54.02;102212.88;5024594;28;20420;-49
2022/05/08 05:27:46;;;;;;;;;;;;;;;13.84;53.95;102216.38;5024156;28;19917;-46
2022/05/08 05:30:11;;;;;;;;;;;;;;;13.93;53.75;102223.00;5022713;28;19913;-46
2022/05/08 05:32:38;;;;;;;;;;;;;;;13.93;53.81;102223.88;5025506;28;20016;-51
2022/05/08 05:35:03;;;;;;;;;;;;;;;13.97;53.97;102225.44;5021444;28;19932;-46
2022/05/08 05:37:29;;;;;;;;;;;;;;;14.07;53.87;102235.56;5032498;28;19913;-49
2022/05/08 05:39:54;;;;;;;;;;;;;;;14.17;53.73;102231.53;5026623;28;19917;-51
2022/05/08 05:42:19;;;;;;;;;;;;;;;14.25;53.52;102228.50;5024941;28;19961;-46
2022/05/08 05:44:44;;;;;;;;;;;;;;;14.31;53.46;102231.69;5019242;28;19921;-47
2022/05/08 05:49:53;;;;;;;;;;;;;;;14.45;53.33;102235.44;5025052;28;19936;-48
2022/05/08 05:52:19;;;;;;;;;;;;;;;14.52;53.20;102242.16;5027530;28;20365;-48
2022/05/08 05:54:44;;;;;;;;;;;;;;;14.60;53.00;102242.63;5020928;28;19928;-47
2022/05/08 05:57:09;;;;;;;;;;;;;;;14.62;52.89;102238.09;5027571;28;19921;-52
2022/05/08 05:59:35;;;;;;;;;;;;;;;14.63;52.89;102245.13;5021883;28;19932;-50
2022/05/08 06:02:00;;;;;;;;;;;;;;;14.64;52.84;102244.19;5023498;28;19923;-50
2022/05/08 06:04:25;;;;;;;;;;;;;;;14.62;52.85;102240.75;5020534;28;20357;-49
2022/05/08 06:06:51;;;;;;;;;;;;;;;14.59;52.90;102242.69;5026982;28;19929;-50
2022/05/08 06:09:16;;;;;;;;;;;;;;;14.59;52.92;102251.53;5026071;28;19939;-53
2022/05/08 06:11:44;;;;;;;;;;;;;;;14.61;53.11;102240.84;5026630;28;19948;-50
2022/05/08 06:14:09;;;;;;;;;;;;;;;14.62;52.98;102243.41;5024173;28;19925;-49
2022/05/08 06:16:35;;;;;;;;;;;;;;;14.66;52.91;102253.84;5020623;28;19921;-50
2022/05/08 06:19:01;;;;;;;;;;;;;;;14.70;52.71;102255.44;5023074;28;19999;-49
2022/05/08 06:21:27;;;;;;;;;;;;;;;14.69;52.89;102256.38;5027187;28;19948;-50
2022/05/08 06:23:55;;;;;;;;;;;;;;;14.69;52.70;102256.38;5017883;28;19932;-48
2022/05/08 06:26:21;;;;;;;;;;;;;;;14.71;52.85;102262.47;5022983;28;19935;-52
2022/05/08 06:28:48;;;;;;;;;;;;;;;14.71;52.64;102268.59;5021777;28;19919;-51
2022/05/08 06:31:16;;;;;;;;;;;;;;;14.70;52.58;102260.75;5022923;28;19913;-51
2022/05/08 06:33:43;;;;;;;;;;;;;;;14.66;52.75;102260.00;5017856;28;20012;-49
2022/05/08 06:36:08;;;;;;;;;;;;;;;14.64;52.99;102259.22;5018911;28;20375;-53
2022/05/08 06:38:33;;;;;;;;;;;;;;;14.60;52.95;102260.31;5028785;28;20369;-49
2022/05/08 06:40:58;;;;;;;;;;;;;;;14.58;53.07;102263.06;5025378;28;19913;-52
2022/05/08 06:43:24;;;;;;;;;;;;;;;14.61;52.98;102260.22;5014474;28;19931;-50
2022/05/08 06:45:49;;;;;;;;;;;;;;;14.69;53.20;102265.16;5029830;28;19991;-51
2022/05/08 06:48:14;;;;;;;;;;;;;;;14.75;52.69;102270.16;5022844;28;19921;-52
2022/05/08 06:50:40;;;;;;;;;;;;;;;14.80;52.79;102277.03;5022356;28;19928;-49
2022/05/08 06:53:06;;;;;;;;;;;;;;;14.84;52.78;102275.91;5026942;28;19917;-49
2022/05/08 06:55:32;;;;;;;;;;;;;;;14.87;52.74;102270.47;5022080;28;19917;-53
2022/05/08 06:57:58;;;;;;;;;;;;;;;14.91;52.45;102270.22;5014113;28;19921;-47
2022/05/08 07:03:07;;;;;;;;;;;;;;;14.98;52.30;102275.22;5015638;28;20056;-49
2022/05/08 07:05:33;;;;;;;;;;;;;;;14.98;52.13;102269.91;5015416;28;20019;-51
2022/05/08 07:07:58;;;;;;;;;;;;;;;15.01;52.35;102264.47;5024402;28;19959;-50
2022/05/08 07:10:23;;;;;;;;;;;;;;;15.03;52.26;102267.88;5021069;28;19921;-50
2022/05/08 07:12:49;;;;;;;;;;;;;;;15.03;52.01;102266.06;5022357;28;20288;-50
2022/05/08 07:15:14;;;;;;;;;;;;;;;15.02;51.99;102267.00;5019746;28;20012;-49
2022/05/08 07:17:40;;;;;;;;;;;;;;;15.02;52.16;102272.31;5020136;28;19920;-51
2022/05/08 07:20:05;;;;;;;;;;;;;;;15.05;51.91;102271.31;5026542;28;20364;-50
2022/05/08 07:22:33;;;;;;;;;;;;;;;15.06;51.71;102273.88;5016052;28;19921;-49
2022/05/08 07:24:58;;;;;;;;;;;;;;;15.09;51.71;102286.97;5014606;28;19921;-49
2022/05/08 07:27:24;;;;;;;;;;;;;;;15.07;51.71;102272.06;5013789;28;19932;-54
2022/05/08 07:29:52;;;;;;;;;;;;;;;15.02;51.86;102282.06;5021027;28;20424;-50
2022/05/08 07:32:17;;;;;;;;;;;;;;;15.00;52.01;102278.66;5023644;28;19928;-50
2022/05/08 07:37:26;;;;;;;;;;;;;;;15.04;51.88;102291.66;5022331;28;20002;-50
2022/05/08 07:39:51;;;;;;;;;;;;;;;15.09;51.82;102294.06;5019480;28;19948;-50
2022/05/08 07:42:17;;;;;;;;;;;;;;;15.10;51.80;102285.16;5007929;28;20400;-53
2022/05/08 07:44:42;;;;;;;;;;;;;;;15.10;51.84;102287.81;5020653;28;19920;-49
2022/05/08 07:47:07;;;;;;;;;;;;;;;15.11;51.67;102281.59;5022565;28;19975;-50
2022/05/08 07:49:32;;;;;;;;;;;;;;;15.14;51.61;102289.38;5022206;28;19961;-49
2022/05/08 07:51:58;;;;;;;;;;;;;;;15.11;51.50;102288.69;5020186;28;19917;-52
2022/05/08 07:54:23;;;;;;;;;;;;;;;15.09;51.62;102291.41;5019360;28;19971;-51
2022/05/08 07:56:48;;;;;;;;;;;;;;;15.07;51.52;102306.53;5020632;28;19926;-51
2022/05/08 07:59:14;;;;;;;;;;;;;;;15.07;51.56;102298.56;5025206;28;19964;-49
2022/05/08 08:01:39;;;;;;;;;;;;;;;15.09;51.69;102294.94;5016217;28;19928;-48
2022/05/08 08:04:05;;;;;;;;;;;;;;;15.15;51.70;102299.06;5015905;28;19921;-46
2022/05/08 08:06:32;;;;;;;;;;;;;;;15.21;51.60;102290.75;5021126;28;19928;-48
2022/05/08 08:08:57;;;;;;;;;;;;;;;15.29;51.13;102294.81;5018944;28;19948;-46
2022/05/08 08:11:23;;;;;;;;;;;;;;;15.27;51.05;102305.50;5022174;28;20014;-48
2022/05/08 08:13:48;;;;;;;;;;;;;;;15.23;50.94;102298.66;5020825;28;19967;-51
2022/05/08 08:16:14;;;;;;;;;;;;;;;15.24;50.93;102303.84;5017318;28;19920;-49
2022/05/08 08:18:42;;;;;;;;;;;;;;;15.19;50.40;102308.56;5021898;28;19916;-49
2022/05/08 08:21:09;;;;;;;;;;;;;;;15.15;50.31;102309.66;5021513;28;20407;-49
2022/05/08 08:23:34;;;;;;;;;;;;;;;15.17;50.56;102313.09;5019339;28;20006;-51
2022/05/08 08:26:00;;;;;;;;;;;;;;;15.23;50.43;102318.06;5016716;28;20385;-48
2022/05/08 08:28:25;;;;;;;;;;;;;;;15.20;50.19;102312.91;5016819;28;19917;-50
2022/05/08 08:30:50;;;;;;;;;;;;;;;15.19;50.17;102323.59;5019328;28;20297;-50
2022/05/08 08:33:15;;;;;;;;;;;;;;;15.19;50.20;102323.59;5014910;28;19921;-49
2022/05/08 08:35:41;;;;;;;;;;;;;;;15.24;50.35;102329.53;5016327;28;20565;-50
2022/05/08 08:38:07;;;;;;;;;;;;;;;15.29;50.17;102331.94;5022569;28;20388;-48
2022/05/08 08:40:33;;;;;;;;;;;;;;;15.32;49.61;102348.53;5021604;28;19932;-51
2022/05/08 08:42:59;;;;;;;;;;;;;;;15.30;49.57;102339.81;5019303;28;19920;-52
2022/05/08 08:48:16;;;;;;;;;;;;;;;15.32;49.30;102337.09;5024152;28;19971;-51
2022/05/08 08:50:42;;;;;;;;;;;;;;;15.31;48.97;102356.59;5019339;28;20351;-49
2022/05/08 08:53:07;;;;;;;;;;;;;;;15.21;48.96;102346.44;5015838;28;19917;-50
2022/05/08 08:55:33;;;;;;;;;;;;;;;15.21;49.01;102356.19;5018999;28;19921;-49
2022/05/08 08:57:58;;;;;;;;;;;;;;;15.24;49.01;102351.59;5020206;28;20675;-49
2022/05/08 09:00:24;;;;;;;;;;;;;;;15.26;48.44;102346.22;5020469;28;20699;-51
2022/05/08 09:02:52;;;;;;;;;;;;;;;15.33;48.68;102360.03;5017328;28;19955;-48
2022/05/08 09:05:17;;;;;;;;;;;;;;;15.41;48.27;102363.13;5022984;28;19919;-48
2022/05/08 09:07:47;;;;;;;;;;;;;;;15.39;47.78;102354.38;5026716;28;19917;-49
2022/05/08 09:10:12;;;;;;;;;;;;;;;15.32;47.28;102353.00;5022221;28;19925;-48
2022/05/08 09:12:38;;;;;;;;;;;;;;;15.27;46.71;102357.69;5015067;28;19967;-50
2022/05/08 09:15:22;;;;;;;;;;;;;;;15.30;47.11;102352.22;5021726;28;20849;-51
2022/05/08 09:17:49;;;;;;;;;;;;;;;15.35;47.35;102352.84;5016335;28;19920;-50
2022/05/08 09:20:27;;;;;;;;;;;;;;;15.41;46.80;102360.47;5015290;28;19918;-49
2022/05/08 09:23:11;;;;;;;;;;;;;;;15.46;45.99;102355.78;5023895;28;19924;-51
2022/05/08 09:25:48;;;;;;;;;;;;;;;15.49;45.74;102365.38;5024802;28;19920;-49
2022/05/08 09:28:14;;;;;;;;;;;;;;;15.45;45.79;102363.81;5024319;28;19921;-49
2022/05/08 09:30:53;;;;;;;;;;;;;;;15.44;45.88;102370.03;5022677;28;19917;-49
2022/05/08 09:33:22;;;;;;;;;;;;;;;15.44;44.88;102362.97;5026695;28;19916;-49
2022/05/08 09:35:48;;;;;;;;;;;;;;;15.49;44.53;102365.38;5010451;28;19953;-50
2022/05/08 09:38:13;;;;;;;;;;;;;;;15.51;44.58;102376.75;5023855;28;19967;-49
2022/05/08 09:40:38;;;;;;;;;;;;;;;15.54;43.26;102358.88;5008276;28;20312;-47
2022/05/08 09:43:04;;;;;;;;;;;;;;;15.59;43.62;102365.75;5000847;28;19933;-50
2022/05/08 09:45:29;;;;;;;;;;;;;;;15.63;43.82;102354.88;5012792;28;19921;-48
2022/05/08 09:47:57;;;;;;;;;;;;;;;15.67;44.22;102353.78;5019126;28;19924;-47
2022/05/08 09:50:22;;;;;;;;;;;;;;;15.72;43.68;102356.19;5020735;28;19928;-47
2022/05/08 09:52:47;;;;;;;;;;;;;;;15.76;42.04;102368.34;5023032;28;19916;-50
2022/05/08 09:55:13;;;;;;;;;;;;;;;15.74;42.05;102359.59;5020253;28;20339;-49
2022/05/08 09:57:39;;;;;;;;;;;;;;;15.75;42.32;102358.66;5021890;28;19917;-50
2022/05/08 10:00:05;;;;;;;;;;;;;;;15.80;41.58;102361.94;5023293;28;19924;-52
2022/05/08 10:02:31;;;;;;;;;;;;;;;15.83;40.42;102369.72;5021873;28;19917;-51
2022/05/08 10:04:57;;;;;;;;;;;;;;;15.90;40.42;102364.97;5024054;28;20430;-49
2022/05/08 10:07:23;;;;;;;;;;;;;;;15.93;40.20;102361.31;5022782;28;19920;-50
2022/05/08 10:15:20;;;;;;;;;;;;;;;15.97;40.27;102368.13;5017080;28;20068;-49
2022/05/08 10:17:45;;;;;;;;;;;;;;;16.03;39.73;102356.34;5012656;28;19956;-49
2022/05/08 10:20:11;;;;;;;;;;;;;;;16.09;38.91;102364.81;5018447;28;20059;-52
2022/05/08 10:22:47;;;;;;;;;;;;;;;16.10;36.94;102363.88;5017778;28;19960;-50
2022/05/08 10:25:16;;;;;;;;;;;;;;;16.09;37.74;102370.13;5019577;28;19920;-51
2022/05/08 10:28:01;;;;;;;;;;;;;;;16.08;37.20;102351.63;5018658;28;20011;-49
2022/05/08 10:30:26;;;;;;;;;;;;;;;16.10;37.91;102360.38;5021376;28;20102;-49
2022/05/08 10:32:52;;;;;;;;;;;;;;;16.12;38.23;102361.97;5022352;28;19916;-50
2022/05/08 10:35:17;;;;;;;;;;;;;;;16.15;37.73;102351.19;5015907;28;19952;-51
2022/05/08 10:37:51;;;;;;;;;;;;;;;16.14;37.87;102352.13;5019479;28;19913;-47
2022/05/08 10:40:22;;;;;;;;;;;;;;;16.17;37.05;102358.22;5020804;28;20318;-52
2022/05/08 10:42:48;;;;;;;;;;;;;;;16.20;36.96;102350.09;5023698;28;20450;-50
2022/05/08 10:45:32;;;;;;;;;;;;;;;16.26;37.40;102355.91;5022129;28;20308;-50
2022/05/08 10:48:07;;;;;;;;;;;;;;;16.32;37.75;102356.50;5021299;28;19951;-50
2022/05/08 10:50:32;;;;;;;;;;;;;;;16.34;35.74;102358.13;5020472;28;19917;-49
2022/05/08 10:52:58;;;;;;;;;;;;;;;16.32;35.67;102361.84;5015496;28;19913;-48
2022/05/08 10:55:26;;;;;;;;;;;;;;;16.31;35.99;102358.31;5020354;28;20546;-49
2022/05/08 10:57:52;;;;;;;;;;;;;;;16.31;36.38;102353.00;5019887;28;19924;-51
2022/05/08 11:00:19;;;;;;;;;;;;;;;16.35;36.75;102357.19;5019785;28;19917;-53
2022/05/08 11:02:44;;;;;;;;;;;;;;;16.40;36.39;102347.16;5019491;28;20759;-49
2022/05/08 11:05:10;;;;;;;;;;;;;;;16.47;35.78;102347.69;5017148;28;19924;-54
2022/05/08 11:07:40;;;;;;;;;;;;;;;16.58;35.30;102355.00;5018402;28;19928;-51
2022/05/08 11:10:21;;;;;;;;;;;;;;;16.58;36.35;102352.34;5019908;28;20443;-52
2022/05/08 11:13:04;;;;;;;;;;;;;;;16.54;36.88;102358.81;5019623;28;19928;-49
2022/05/08 11:15:31;;;;;;;;;;;;;;;16.55;37.07;102349.91;5016948;28;19924;-51
2022/05/08 11:18:07;;;;;;;;;;;;;;;16.57;36.96;102353.28;5016824;28;20002;-49
2022/05/08 11:20:59;;;;;;;;;;;;;;;16.57;37.20;102353.28;5015158;28;19916;-50
2022/05/08 11:23:29;;;;;;;;;;;;;;;16.60;37.36;102350.47;5020457;28;19921;-51
2022/05/08 11:25:55;;;;;;;;;;;;;;;16.65;37.44;102356.38;5021041;28;19925;-52
2022/05/08 11:28:24;;;;;;;;;;;;;;;16.67;37.04;102346.53;5020199;28;19921;-49
2022/05/08 11:30:50;;;;;;;;;;;;;;;16.71;37.04;102356.00;5018146;28;19917;-49
2022/05/08 11:36:04;;;;;;;;;;;;;;;16.79;36.12;102352.91;5015229;28;20087;-49
2022/05/08 11:38:32;;;;;;;;;;;;;;;16.77;36.13;102349.50;5020787;28;19917;-52
2022/05/08 11:40:58;;;;;;;;;;;;;;;16.77;36.25;102342.38;5014574;28;20004;-49
2022/05/08 11:43:40;;;;;;;;;;;;;;;16.79;35.90;102346.75;5019952;28;20714;-52
2022/05/08 11:46:07;;;;;;;;;;;;;;;16.79;35.74;102346.75;5018064;28;19917;-51
2022/05/08 11:48:34;;;;;;;;;;;;;;;16.82;35.12;102347.41;5017818;28;19924;-52
2022/05/08 11:51:00;;;;;;;;;;;;;;;16.89;35.20;102331.94;5019364;28;19917;-50
2022/05/08 11:53:25;;;;;;;;;;;;;;;16.97;34.77;102340.38;5021481;28;19924;-49
2022/05/08 11:55:51;;;;;;;;;;;;;;;17.01;34.54;102341.91;5022720;28;19928;-52
2022/05/08 11:58:36;;;;;;;;;;;;;;;17.05;35.04;102343.41;5019802;28;19913;-50
2022/05/08 12:01:01;;;;;;;;;;;;;;;17.06;34.51;102333.66;5021584;28;20292;-51
2022/05/08 12:03:30;;;;;;;;;;;;;;;17.11;35.15;102338.69;5020402;28;19921;-49
2022/05/08 12:06:13;;;;;;;;;;;;;;;17.15;35.32;102332.25;5021410;28;20419;-50
2022/05/08 12:08:39;;;;;;;;;;;;;;;17.25;35.43;102327.19;5022967;28;19909;-50
2022/05/08 12:11:04;;;;;;;;;;;;;;;17.28;34.94;102333.19;5022043;28;20292;-50
2022/05/08 12:13:34;;;;;;;;;;;;;;;17.32;34.59;102334.69;5021698;28;20312;-50
2022/05/08 12:16:17;;;;;;;;;;;;;;;17.35;34.44;102331.03;5021209;28;19917;-49
2022/05/08 12:19:01;;;;;;;;;;;;;;;17.34;33.93;102335.47;5021932;28;19943;-49
2022/05/08 12:21:27;;;;;;;;;;;;;;;17.35;33.93;102337.19;5004530;28;19919;-50
2022/05/08 12:23:53;;;;;;;;;;;;;;;17.38;34.39;102344.16;5022890;28;19916;-49
2022/05/08 12:26:18;;;;;;;;;;;;;;;17.40;33.87;102363.50;5021209;28;20011;-49
2022/05/08 12:28:44;;;;;;;;;;;;;;;17.37;33.62;102342.44;5022079;28;20403;-49
2022/05/08 12:31:09;;;;;;;;;;;;;;;17.36;33.96;102341.56;5022675;28;19913;-49
2022/05/08 12:33:35;;;;;;;;;;;;;;;17.41;34.08;102335.09;5020418;28;19921;-49
2022/05/08 12:36:00;;;;;;;;;;;;;;;17.43;34.03;102334.06;5021564;28;19947;-49
2022/05/08 12:38:26;;;;;;;;;;;;;;;17.50;34.06;102343.38;5024694;28;19913;-49
2022/05/08 12:40:52;;;;;;;;;;;;;;;17.59;33.75;102344.63;5026109;28;19913;-50
2022/05/08 12:43:17;;;;;;;;;;;;;;;17.65;33.71;102336.22;5026919;28;19921;-51
2022/05/08 12:45:43;;;;;;;;;;;;;;;17.76;34.18;102348.03;5017182;28;19913;-50
2022/05/08 12:48:08;;;;;;;;;;;;;;;17.81;33.24;102346.78;5019783;28;20315;-50
2022/05/08 12:50:33;;;;;;;;;;;;;;;17.74;31.96;102347.28;5026474;28;19952;-50
2022/05/08 12:52:59;;;;;;;;;;;;;;;17.71;32.28;102344.78;5024176;28;20436;-50
2022/05/08 12:55:24;;;;;;;;;;;;;;;17.73;32.53;102337.56;5022057;28;19917;-50
2022/05/08 13:00:35;;;;;;;;;;;;;;;17.86;31.93;102335.84;4996536;28;20357;-55